sensor_id;sensor_type;location;lat;lon;timestamp;P1;durP1;ratioP1;P2;durP2;ratioP2
45368;SDS011;51342;55.250;37.668;2022-08-30T00:04:05;9.13;;;6.78;;
45368;SDS011;51342;55.250;37.668;2022-08-30T00:06:38;11.95;;;7.88;;
45368;SDS011;51342;55.250;37.668;2022-08-30T00:09:09;12.90;;;8.18;;
45368;SDS011;51342;55.250;37.668;2022-08-30T00:11:41;14.05;;;7.93;;
45368;SDS011;51342;55.250;37.668;2022-08-30T00:14:13;12.63;;;8.93;;
45368;SDS011;51342;55.250;37.668;2022-08-30T00:16:47;13.43;;;7.53;;
45368;SDS011;51342;55.250;37.668;2022-08-30T00:19:18;9.70;;;7.05;;
45368;SDS011;51342;55.250;37.668;2022-08-30T00:21:50;14.10;;;8.10;;
45368;SDS011;51342;55.250;37.668;2022-08-30T00:24:21;14.52;;;8.20;;
45368;SDS011;51342;55.250;37.668;2022-08-30T00:26:53;13.57;;;8.35;;
45368;SDS011;51342;55.250;37.668;2022-08-30T00:29:24;11.82;;;8.05;;
45368;SDS011;51342;55.250;37.668;2022-08-30T00:31:56;8.95;;;6.82;;
45368;SDS011;51342;55.250;37.668;2022-08-30T00:34:27;12.35;;;8.68;;
45368;SDS011;51342;55.250;37.668;2022-08-30T00:36:59;13.23;;;9.38;;
45368;SDS011;51342;55.250;37.668;2022-08-30T00:39:31;13.60;;;8.52;;
45368;SDS011;51342;55.250;37.668;2022-08-30T00:42:02;11.23;;;7.88;;
45368;SDS011;51342;55.250;37.668;2022-08-30T00:44:34;12.52;;;7.40;;
45368;SDS011;51342;55.250;37.668;2022-08-30T00:47:06;14.10;;;9.00;;
45368;SDS011;51342;55.250;37.668;2022-08-30T00:49:39;13.18;;;8.25;;
45368;SDS011;51342;55.250;37.668;2022-08-30T00:52:13;11.07;;;7.25;;
45368;SDS011;51342;55.250;37.668;2022-08-30T00:54:46;9.85;;;7.03;;
45368;SDS011;51342;55.250;37.668;2022-08-30T00:57:18;12.38;;;8.60;;
45368;SDS011;51342;55.250;37.668;2022-08-30T00:59:50;11.32;;;8.27;;
45368;SDS011;51342;55.250;37.668;2022-08-30T01:02:21;11.98;;;8.43;;
45368;SDS011;51342;55.250;37.668;2022-08-30T01:04:53;15.65;;;9.90;;
45368;SDS011;51342;55.250;37.668;2022-08-30T01:07:25;17.58;;;9.75;;
45368;SDS011;51342;55.250;37.668;2022-08-30T01:09:56;16.02;;;9.57;;
45368;SDS011;51342;55.250;37.668;2022-08-30T01:12:28;18.35;;;9.63;;
45368;SDS011;51342;55.250;37.668;2022-08-30T01:15:00;13.80;;;9.80;;
45368;SDS011;51342;55.250;37.668;2022-08-30T01:17:31;18.23;;;10.23;;
45368;SDS011;51342;55.250;37.668;2022-08-30T01:20:05;12.05;;;9.25;;
45368;SDS011;51342;55.250;37.668;2022-08-30T01:25:22;15.00;;;9.30;;
45368;SDS011;51342;55.250;37.668;2022-08-30T01:27:58;13.07;;;9.35;;
45368;SDS011;51342;55.250;37.668;2022-08-30T01:30:33;17.52;;;11.07;;
45368;SDS011;51342;55.250;37.668;2022-08-30T01:33:05;13.13;;;8.65;;
45368;SDS011;51342;55.250;37.668;2022-08-30T01:38:20;14.20;;;9.07;;
45368;SDS011;51342;55.250;37.668;2022-08-30T01:40:57;13.30;;;9.02;;
45368;SDS011;51342;55.250;37.668;2022-08-30T01:46:02;15.57;;;9.07;;
45368;SDS011;51342;55.250;37.668;2022-08-30T01:48:33;16.13;;;9.23;;
45368;SDS011;51342;55.250;37.668;2022-08-30T01:51:05;13.35;;;9.63;;
45368;SDS011;51342;55.250;37.668;2022-08-30T01:53:37;18.27;;;9.00;;
45368;SDS011;51342;55.250;37.668;2022-08-30T01:56:10;16.90;;;10.43;;
45368;SDS011;51342;55.250;37.668;2022-08-30T01:58:43;11.30;;;8.43;;
45368;SDS011;51342;55.250;37.668;2022-08-30T02:01:16;12.38;;;7.93;;
45368;SDS011;51342;55.250;37.668;2022-08-30T02:03:50;15.05;;;10.23;;
45368;SDS011;51342;55.250;37.668;2022-08-30T02:06:25;15.45;;;9.57;;
45368;SDS011;51342;55.250;37.668;2022-08-30T02:08:58;13.30;;;8.10;;
45368;SDS011;51342;55.250;37.668;2022-08-30T02:11:29;15.15;;;9.35;;
45368;SDS011;51342;55.250;37.668;2022-08-30T02:14:01;20.90;;;10.38;;
45368;SDS011;51342;55.250;37.668;2022-08-30T02:16:32;10.73;;;8.88;;
45368;SDS011;51342;55.250;37.668;2022-08-30T02:19:04;14.23;;;8.82;;
45368;SDS011;51342;55.250;37.668;2022-08-30T02:21:35;15.85;;;9.40;;
45368;SDS011;51342;55.250;37.668;2022-08-30T02:24:07;14.00;;;8.65;;
45368;SDS011;51342;55.250;37.668;2022-08-30T02:26:38;15.27;;;10.68;;
45368;SDS011;51342;55.250;37.668;2022-08-30T02:29:09;12.52;;;8.63;;
45368;SDS011;51342;55.250;37.668;2022-08-30T02:31:41;19.83;;;10.93;;
45368;SDS011;51342;55.250;37.668;2022-08-30T02:34:13;13.60;;;9.10;;
45368;SDS011;51342;55.250;37.668;2022-08-30T02:36:45;18.02;;;9.60;;
45368;SDS011;51342;55.250;37.668;2022-08-30T02:39:17;16.30;;;10.38;;
45368;SDS011;51342;55.250;37.668;2022-08-30T02:41:48;10.68;;;8.65;;
45368;SDS011;51342;55.250;37.668;2022-08-30T02:44:20;12.00;;;8.38;;
45368;SDS011;51342;55.250;37.668;2022-08-30T02:46:51;14.20;;;9.13;;
45368;SDS011;51342;55.250;37.668;2022-08-30T02:49:23;13.35;;;8.32;;
45368;SDS011;51342;55.250;37.668;2022-08-30T02:51:54;15.50;;;8.88;;
45368;SDS011;51342;55.250;37.668;2022-08-30T02:54:25;16.25;;;9.30;;
45368;SDS011;51342;55.250;37.668;2022-08-30T02:56:58;12.77;;;9.20;;
45368;SDS011;51342;55.250;37.668;2022-08-30T02:59:34;13.30;;;8.88;;
45368;SDS011;51342;55.250;37.668;2022-08-30T03:02:11;12.73;;;10.63;;
45368;SDS011;51342;55.250;37.668;2022-08-30T03:04:43;13.50;;;9.20;;
45368;SDS011;51342;55.250;37.668;2022-08-30T03:07:14;16.05;;;10.45;;
45368;SDS011;51342;55.250;37.668;2022-08-30T03:09:46;15.82;;;11.13;;
45368;SDS011;51342;55.250;37.668;2022-08-30T03:12:18;15.38;;;9.77;;
45368;SDS011;51342;55.250;37.668;2022-08-30T03:14:49;12.05;;;10.38;;
45368;SDS011;51342;55.250;37.668;2022-08-30T03:17:21;17.40;;;11.00;;
45368;SDS011;51342;55.250;37.668;2022-08-30T03:19:53;13.70;;;9.35;;
45368;SDS011;51342;55.250;37.668;2022-08-30T03:22:24;18.52;;;10.38;;
45368;SDS011;51342;55.250;37.668;2022-08-30T03:24:56;16.05;;;10.38;;
45368;SDS011;51342;55.250;37.668;2022-08-30T03:27:29;13.73;;;10.18;;
45368;SDS011;51342;55.250;37.668;2022-08-30T03:30:01;20.00;;;11.00;;
45368;SDS011;51342;55.250;37.668;2022-08-30T03:32:32;15.57;;;10.75;;
45368;SDS011;51342;55.250;37.668;2022-08-30T03:35:05;12.88;;;10.80;;
45368;SDS011;51342;55.250;37.668;2022-08-30T03:37:37;15.07;;;10.48;;
45368;SDS011;51342;55.250;37.668;2022-08-30T03:40:09;17.27;;;11.32;;
45368;SDS011;51342;55.250;37.668;2022-08-30T03:42:42;12.40;;;10.18;;
45368;SDS011;51342;55.250;37.668;2022-08-30T03:45:15;17.95;;;10.80;;
45368;SDS011;51342;55.250;37.668;2022-08-30T03:47:48;18.55;;;11.88;;
45368;SDS011;51342;55.250;37.668;2022-08-30T03:50:20;17.33;;;12.57;;
45368;SDS011;51342;55.250;37.668;2022-08-30T03:52:51;13.82;;;11.13;;
45368;SDS011;51342;55.250;37.668;2022-08-30T03:55:23;17.00;;;10.35;;
45368;SDS011;51342;55.250;37.668;2022-08-30T03:57:54;18.17;;;11.45;;
45368;SDS011;51342;55.250;37.668;2022-08-30T04:00:26;19.05;;;10.60;;
45368;SDS011;51342;55.250;37.668;2022-08-30T04:02:58;17.70;;;11.90;;
45368;SDS011;51342;55.250;37.668;2022-08-30T04:05:29;15.98;;;10.52;;
45368;SDS011;51342;55.250;37.668;2022-08-30T04:08:01;15.80;;;10.65;;
45368;SDS011;51342;55.250;37.668;2022-08-30T04:10:34;19.35;;;10.55;;
45368;SDS011;51342;55.250;37.668;2022-08-30T04:13:06;16.23;;;10.50;;
45368;SDS011;51342;55.250;37.668;2022-08-30T04:15:37;15.52;;;9.95;;
45368;SDS011;51342;55.250;37.668;2022-08-30T04:18:08;15.93;;;9.70;;
45368;SDS011;51342;55.250;37.668;2022-08-30T04:20:40;16.70;;;9.77;;
45368;SDS011;51342;55.250;37.668;2022-08-30T04:23:12;14.95;;;10.02;;
45368;SDS011;51342;55.250;37.668;2022-08-30T04:25:44;17.73;;;9.25;;
45368;SDS011;51342;55.250;37.668;2022-08-30T04:28:16;13.70;;;9.55;;
45368;SDS011;51342;55.250;37.668;2022-08-30T04:30:48;16.05;;;10.10;;
45368;SDS011;51342;55.250;37.668;2022-08-30T04:33:19;14.32;;;9.27;;
45368;SDS011;51342;55.250;37.668;2022-08-30T04:35:51;17.40;;;9.20;;
45368;SDS011;51342;55.250;37.668;2022-08-30T04:38:22;18.92;;;10.10;;
45368;SDS011;51342;55.250;37.668;2022-08-30T04:40:54;14.82;;;9.77;;
45368;SDS011;51342;55.250;37.668;2022-08-30T04:43:25;15.25;;;9.68;;
45368;SDS011;51342;55.250;37.668;2022-08-30T04:45:57;16.90;;;9.18;;
45368;SDS011;51342;55.250;37.668;2022-08-30T04:48:29;16.63;;;9.20;;
45368;SDS011;51342;55.250;37.668;2022-08-30T04:51:04;13.20;;;9.20;;
45368;SDS011;51342;55.250;37.668;2022-08-30T04:53:37;11.43;;;8.85;;
45368;SDS011;51342;55.250;37.668;2022-08-30T04:56:10;14.23;;;8.93;;
45368;SDS011;51342;55.250;37.668;2022-08-30T04:58:46;15.65;;;9.23;;
45368;SDS011;51342;55.250;37.668;2022-08-30T05:01:21;15.43;;;10.00;;
45368;SDS011;51342;55.250;37.668;2022-08-30T05:03:55;13.82;;;9.43;;
45368;SDS011;51342;55.250;37.668;2022-08-30T05:06:28;19.08;;;9.98;;
45368;SDS011;51342;55.250;37.668;2022-08-30T05:09:03;15.40;;;9.25;;
45368;SDS011;51342;55.250;37.668;2022-08-30T05:11:35;16.40;;;8.88;;
45368;SDS011;51342;55.250;37.668;2022-08-30T05:14:07;13.43;;;9.70;;
45368;SDS011;51342;55.250;37.668;2022-08-30T05:16:39;19.83;;;9.32;;
45368;SDS011;51342;55.250;37.668;2022-08-30T05:19:11;13.35;;;8.77;;
45368;SDS011;51342;55.250;37.668;2022-08-30T05:21:42;15.00;;;9.95;;
45368;SDS011;51342;55.250;37.668;2022-08-30T05:24:14;15.07;;;8.20;;
45368;SDS011;51342;55.250;37.668;2022-08-30T05:26:45;14.57;;;8.73;;
45368;SDS011;51342;55.250;37.668;2022-08-30T05:29:16;13.38;;;8.70;;
45368;SDS011;51342;55.250;37.668;2022-08-30T05:31:48;15.18;;;8.88;;
45368;SDS011;51342;55.250;37.668;2022-08-30T05:34:19;14.68;;;9.48;;
45368;SDS011;51342;55.250;37.668;2022-08-30T05:36:51;11.45;;;8.35;;
45368;SDS011;51342;55.250;37.668;2022-08-30T05:39:23;11.95;;;8.82;;
45368;SDS011;51342;55.250;37.668;2022-08-30T05:41:58;13.25;;;8.65;;
45368;SDS011;51342;55.250;37.668;2022-08-30T05:44:29;13.20;;;9.38;;
45368;SDS011;51342;55.250;37.668;2022-08-30T05:47:01;16.63;;;9.48;;
45368;SDS011;51342;55.250;37.668;2022-08-30T05:49:32;14.68;;;9.55;;
45368;SDS011;51342;55.250;37.668;2022-08-30T05:52:03;15.38;;;8.70;;
45368;SDS011;51342;55.250;37.668;2022-08-30T05:54:35;13.30;;;9.10;;
45368;SDS011;51342;55.250;37.668;2022-08-30T05:57:07;18.83;;;9.35;;
45368;SDS011;51342;55.250;37.668;2022-08-30T05:59:38;10.75;;;8.50;;
45368;SDS011;51342;55.250;37.668;2022-08-30T06:02:10;16.70;;;8.60;;
45368;SDS011;51342;55.250;37.668;2022-08-30T06:04:41;15.68;;;8.57;;
45368;SDS011;51342;55.250;37.668;2022-08-30T06:07:13;13.88;;;9.30;;
45368;SDS011;51342;55.250;37.668;2022-08-30T06:09:44;15.57;;;9.10;;
45368;SDS011;51342;55.250;37.668;2022-08-30T06:12:16;12.85;;;8.38;;
45368;SDS011;51342;55.250;37.668;2022-08-30T06:14:47;13.65;;;8.75;;
45368;SDS011;51342;55.250;37.668;2022-08-30T06:17:18;13.48;;;8.48;;
45368;SDS011;51342;55.250;37.668;2022-08-30T06:19:50;12.52;;;9.55;;
45368;SDS011;51342;55.250;37.668;2022-08-30T06:22:21;13.02;;;9.23;;
45368;SDS011;51342;55.250;37.668;2022-08-30T06:24:53;11.60;;;9.00;;
45368;SDS011;51342;55.250;37.668;2022-08-30T06:27:24;12.48;;;8.93;;
45368;SDS011;51342;55.250;37.668;2022-08-30T06:29:56;15.15;;;8.70;;
45368;SDS011;51342;55.250;37.668;2022-08-30T06:32:27;12.60;;;8.30;;
45368;SDS011;51342;55.250;37.668;2022-08-30T06:34:58;12.32;;;8.13;;
45368;SDS011;51342;55.250;37.668;2022-08-30T06:37:30;15.75;;;8.75;;
45368;SDS011;51342;55.250;37.668;2022-08-30T06:40:03;13.15;;;8.10;;
45368;SDS011;51342;55.250;37.668;2022-08-30T06:42:34;10.50;;;8.52;;
45368;SDS011;51342;55.250;37.668;2022-08-30T06:45:06;12.52;;;8.65;;
45368;SDS011;51342;55.250;37.668;2022-08-30T06:47:38;11.88;;;8.82;;
45368;SDS011;51342;55.250;37.668;2022-08-30T06:50:10;14.27;;;8.68;;
45368;SDS011;51342;55.250;37.668;2022-08-30T06:52:43;13.13;;;8.13;;
45368;SDS011;51342;55.250;37.668;2022-08-30T06:55:16;12.82;;;9.02;;
45368;SDS011;51342;55.250;37.668;2022-08-30T06:57:48;15.02;;;8.63;;
45368;SDS011;51342;55.250;37.668;2022-08-30T07:00:20;15.82;;;9.10;;
45368;SDS011;51342;55.250;37.668;2022-08-30T07:02:51;15.07;;;8.35;;
45368;SDS011;51342;55.250;37.668;2022-08-30T07:05:23;11.88;;;8.43;;
45368;SDS011;51342;55.250;37.668;2022-08-30T07:07:54;10.82;;;8.32;;
45368;SDS011;51342;55.250;37.668;2022-08-30T07:10:26;14.82;;;8.52;;
45368;SDS011;51342;55.250;37.668;2022-08-30T07:12:57;13.10;;;8.90;;
45368;SDS011;51342;55.250;37.668;2022-08-30T07:15:29;15.18;;;7.82;;
45368;SDS011;51342;55.250;37.668;2022-08-30T07:18:00;10.82;;;7.40;;
45368;SDS011;51342;55.250;37.668;2022-08-30T07:20:50;11.18;;;8.70;;
45368;SDS011;51342;55.250;37.668;2022-08-30T07:23:22;12.60;;;7.75;;
45368;SDS011;51342;55.250;37.668;2022-08-30T07:25:53;12.07;;;8.52;;
45368;SDS011;51342;55.250;37.668;2022-08-30T07:28:25;14.45;;;8.60;;
45368;SDS011;51342;55.250;37.668;2022-08-30T07:30:56;14.70;;;8.23;;
45368;SDS011;51342;55.250;37.668;2022-08-30T07:33:28;13.45;;;8.52;;
45368;SDS011;51342;55.250;37.668;2022-08-30T07:35:59;12.48;;;7.97;;
45368;SDS011;51342;55.250;37.668;2022-08-30T07:38:31;9.38;;;7.47;;
45368;SDS011;51342;55.250;37.668;2022-08-30T07:41:04;12.68;;;8.82;;
45368;SDS011;51342;55.250;37.668;2022-08-30T07:43:36;10.18;;;8.52;;
45368;SDS011;51342;55.250;37.668;2022-08-30T07:46:07;13.68;;;8.05;;
45368;SDS011;51342;55.250;37.668;2022-08-30T07:48:39;13.55;;;8.45;;
45368;SDS011;51342;55.250;37.668;2022-08-30T07:51:12;10.88;;;7.82;;
45368;SDS011;51342;55.250;37.668;2022-08-30T07:53:46;13.20;;;7.68;;
45368;SDS011;51342;55.250;37.668;2022-08-30T07:56:18;12.40;;;8.48;;
45368;SDS011;51342;55.250;37.668;2022-08-30T07:58:49;12.55;;;7.63;;
45368;SDS011;51342;55.250;37.668;2022-08-30T08:01:21;9.70;;;7.40;;
45368;SDS011;51342;55.250;37.668;2022-08-30T08:03:53;13.32;;;8.27;;
45368;SDS011;51342;55.250;37.668;2022-08-30T08:06:25;15.93;;;7.55;;
45368;SDS011;51342;55.250;37.668;2022-08-30T08:08:57;13.25;;;8.35;;
45368;SDS011;51342;55.250;37.668;2022-08-30T08:11:32;13.20;;;8.30;;
45368;SDS011;51342;55.250;37.668;2022-08-30T08:14:05;11.70;;;7.28;;
45368;SDS011;51342;55.250;37.668;2022-08-30T08:16:37;11.02;;;7.65;;
45368;SDS011;51342;55.250;37.668;2022-08-30T08:19:09;10.15;;;6.85;;
45368;SDS011;51342;55.250;37.668;2022-08-30T08:21:42;12.20;;;7.47;;
45368;SDS011;51342;55.250;37.668;2022-08-30T08:24:13;14.07;;;7.38;;
45368;SDS011;51342;55.250;37.668;2022-08-30T08:26:45;13.10;;;7.22;;
45368;SDS011;51342;55.250;37.668;2022-08-30T08:29:16;11.63;;;6.95;;
45368;SDS011;51342;55.250;37.668;2022-08-30T08:31:48;11.55;;;6.90;;
45368;SDS011;51342;55.250;37.668;2022-08-30T08:34:19;12.23;;;6.60;;
45368;SDS011;51342;55.250;37.668;2022-08-30T08:36:53;10.25;;;6.40;;
45368;SDS011;51342;55.250;37.668;2022-08-30T08:39:24;13.48;;;6.82;;
45368;SDS011;51342;55.250;37.668;2022-08-30T08:45:03;9.77;;;6.10;;
45368;SDS011;51342;55.250;37.668;2022-08-30T08:47:55;11.32;;;6.00;;
45368;SDS011;51342;55.250;37.668;2022-08-30T08:50:31;9.55;;;5.57;;
45368;SDS011;51342;55.250;37.668;2022-08-30T08:55:58;10.30;;;6.13;;
45368;SDS011;51342;55.250;37.668;2022-08-30T08:58:51;13.65;;;6.05;;
45368;SDS011;51342;55.250;37.668;2022-08-30T09:01:24;11.45;;;6.63;;
45368;SDS011;51342;55.250;37.668;2022-08-30T09:04:02;11.35;;;5.93;;
45368;SDS011;51342;55.250;37.668;2022-08-30T09:09:37;11.38;;;5.82;;
45368;SDS011;51342;55.250;37.668;2022-08-30T09:14:45;15.50;;;6.03;;
45368;SDS011;51342;55.250;37.668;2022-08-30T09:17:19;12.95;;;5.70;;
45368;SDS011;51342;55.250;37.668;2022-08-30T09:22:36;14.55;;;6.22;;
45368;SDS011;51342;55.250;37.668;2022-08-30T09:27:54;11.18;;;5.50;;
45368;SDS011;51342;55.250;37.668;2022-08-30T09:30:39;15.85;;;6.28;;
45368;SDS011;51342;55.250;37.668;2022-08-30T09:33:30;12.55;;;5.60;;
45368;SDS011;51342;55.250;37.668;2022-08-30T09:36:40;17.27;;;6.57;;
45368;SDS011;51342;55.250;37.668;2022-08-30T09:39:04;19.95;;;6.43;;
45368;SDS011;51342;55.250;37.668;2022-08-30T09:41:44;14.07;;;5.97;;
45368;SDS011;51342;55.250;37.668;2022-08-30T09:46:58;12.97;;;6.27;;
45368;SDS011;51342;55.250;37.668;2022-08-30T09:49:35;13.30;;;5.88;;
45368;SDS011;51342;55.250;37.668;2022-08-30T09:52:17;14.63;;;5.35;;
45368;SDS011;51342;55.250;37.668;2022-08-30T09:55:01;11.27;;;5.63;;
45368;SDS011;51342;55.250;37.668;2022-08-30T09:57:40;11.10;;;4.90;;
45368;SDS011;51342;55.250;37.668;2022-08-30T10:00:23;16.83;;;5.50;;
45368;SDS011;51342;55.250;37.668;2022-08-30T10:03:03;14.02;;;5.63;;
45368;SDS011;51342;55.250;37.668;2022-08-30T10:11:15;15.32;;;5.28;;
45368;SDS011;51342;55.250;37.668;2022-08-30T10:19:34;13.25;;;5.97;;
45368;SDS011;51342;55.250;37.668;2022-08-30T10:25:09;17.50;;;5.72;;
45368;SDS011;51342;55.250;37.668;2022-08-30T10:30:47;11.93;;;5.13;;
45368;SDS011;51342;55.250;37.668;2022-08-30T10:33:27;13.35;;;5.75;;
45368;SDS011;51342;55.250;37.668;2022-08-30T10:36:08;10.32;;;5.57;;
45368;SDS011;51342;55.250;37.668;2022-08-30T10:38:43;16.88;;;5.38;;
45368;SDS011;51342;55.250;37.668;2022-08-30T10:44:00;13.70;;;4.95;;
45368;SDS011;51342;55.250;37.668;2022-08-30T10:49:56;8.55;;;4.70;;
45368;SDS011;51342;55.250;37.668;2022-08-30T10:52:43;14.30;;;6.15;;
45368;SDS011;51342;55.250;37.668;2022-08-30T10:55:23;12.25;;;5.43;;
45368;SDS011;51342;55.250;37.668;2022-08-30T10:57:59;11.35;;;5.22;;
45368;SDS011;51342;55.250;37.668;2022-08-30T11:00:39;14.55;;;5.00;;
45368;SDS011;51342;55.250;37.668;2022-08-30T11:09:37;13.27;;;5.45;;
45368;SDS011;51342;55.250;37.668;2022-08-30T11:15:14;12.98;;;5.38;;
45368;SDS011;51342;55.250;37.668;2022-08-30T11:25:55;11.88;;;5.05;;
45368;SDS011;51342;55.250;37.668;2022-08-30T11:31:09;16.25;;;6.10;;
45368;SDS011;51342;55.250;37.668;2022-08-30T11:33:51;12.57;;;5.90;;
45368;SDS011;51342;55.250;37.668;2022-08-30T11:39:06;9.75;;;4.97;;
45368;SDS011;51342;55.250;37.668;2022-08-30T11:41:43;11.70;;;5.30;;
45368;SDS011;51342;55.250;37.668;2022-08-30T11:46:52;12.65;;;4.72;;
45368;SDS011;51342;55.250;37.668;2022-08-30T11:52:21;15.63;;;5.40;;
45368;SDS011;51342;55.250;37.668;2022-08-30T12:01:30;13.35;;;5.30;;
45368;SDS011;51342;55.250;37.668;2022-08-30T12:06:58;10.85;;;4.55;;
45368;SDS011;51342;55.250;37.668;2022-08-30T12:14:49;13.80;;;5.75;;
45368;SDS011;51342;55.250;37.668;2022-08-30T12:20:27;12.90;;;5.88;;
45368;SDS011;51342;55.250;37.668;2022-08-30T12:23:20;13.30;;;6.63;;
45368;SDS011;51342;55.250;37.668;2022-08-30T12:29:10;13.20;;;5.30;;
45368;SDS011;51342;55.250;37.668;2022-08-30T12:34:30;12.93;;;5.28;;
45368;SDS011;51342;55.250;37.668;2022-08-30T12:40:07;9.60;;;4.72;;
45368;SDS011;51342;55.250;37.668;2022-08-30T12:42:48;15.90;;;5.78;;
45368;SDS011;51342;55.250;37.668;2022-08-30T12:45:26;16.58;;;6.35;;
45368;SDS011;51342;55.250;37.668;2022-08-30T12:48:11;12.35;;;5.68;;
45368;SDS011;51342;55.250;37.668;2022-08-30T12:50:46;13.70;;;6.10;;
45368;SDS011;51342;55.250;37.668;2022-08-30T12:56:45;13.88;;;5.80;;
45368;SDS011;51342;55.250;37.668;2022-08-30T12:59:38;24.45;;;6.75;;
45368;SDS011;51342;55.250;37.668;2022-08-30T13:02:23;13.80;;;5.80;;
45368;SDS011;51342;55.250;37.668;2022-08-30T13:04:56;12.07;;;5.55;;
45368;SDS011;51342;55.250;37.668;2022-08-30T13:07:32;14.82;;;6.05;;
45368;SDS011;51342;55.250;37.668;2022-08-30T13:10:12;12.02;;;5.97;;
45368;SDS011;51342;55.250;37.668;2022-08-30T13:13:07;12.43;;;5.82;;
45368;SDS011;51342;55.250;37.668;2022-08-30T13:15:41;13.95;;;6.85;;
45368;SDS011;51342;55.250;37.668;2022-08-30T13:18:23;15.00;;;6.55;;
45368;SDS011;51342;55.250;37.668;2022-08-30T13:24:01;14.63;;;6.18;;
45368;SDS011;51342;55.250;37.668;2022-08-30T13:26:35;16.05;;;6.53;;
45368;SDS011;51342;55.250;37.668;2022-08-30T13:29:13;12.27;;;6.45;;
45368;SDS011;51342;55.250;37.668;2022-08-30T13:31:47;14.13;;;6.10;;
45368;SDS011;51342;55.250;37.668;2022-08-30T13:34:19;13.02;;;5.85;;
45368;SDS011;51342;55.250;37.668;2022-08-30T13:36:53;12.93;;;5.75;;
45368;SDS011;51342;55.250;37.668;2022-08-30T13:39:26;16.92;;;6.53;;
45368;SDS011;51342;55.250;37.668;2022-08-30T13:41:58;14.50;;;5.30;;
45368;SDS011;51342;55.250;37.668;2022-08-30T13:44:29;10.98;;;5.85;;
45368;SDS011;51342;55.250;37.668;2022-08-30T13:47:01;14.02;;;5.97;;
45368;SDS011;51342;55.250;37.668;2022-08-30T13:49:34;10.38;;;5.38;;
45368;SDS011;51342;55.250;37.668;2022-08-30T13:52:06;12.15;;;5.50;;
45368;SDS011;51342;55.250;37.668;2022-08-30T13:54:38;17.00;;;5.75;;
45368;SDS011;51342;55.250;37.668;2022-08-30T13:57:10;12.68;;;5.70;;
45368;SDS011;51342;55.250;37.668;2022-08-30T13:59:41;14.02;;;5.15;;
45368;SDS011;51342;55.250;37.668;2022-08-30T14:02:13;16.35;;;6.63;;
45368;SDS011;51342;55.250;37.668;2022-08-30T14:04:44;13.63;;;5.63;;
45368;SDS011;51342;55.250;37.668;2022-08-30T14:07:16;13.57;;;5.38;;
45368;SDS011;51342;55.250;37.668;2022-08-30T14:09:47;16.73;;;6.25;;
45368;SDS011;51342;55.250;37.668;2022-08-30T14:12:19;11.18;;;6.03;;
45368;SDS011;51342;55.250;37.668;2022-08-30T14:14:50;16.77;;;6.22;;
45368;SDS011;51342;55.250;37.668;2022-08-30T14:17:21;15.82;;;6.00;;
45368;SDS011;51342;55.250;37.668;2022-08-30T14:19:59;12.80;;;5.93;;
45368;SDS011;51342;55.250;37.668;2022-08-30T14:22:30;14.38;;;5.43;;
45368;SDS011;51342;55.250;37.668;2022-08-30T14:25:02;12.00;;;5.97;;
45368;SDS011;51342;55.250;37.668;2022-08-30T14:27:34;12.65;;;5.25;;
45368;SDS011;51342;55.250;37.668;2022-08-30T14:30:05;13.70;;;5.43;;
45368;SDS011;51342;55.250;37.668;2022-08-30T14:32:40;13.05;;;5.50;;
45368;SDS011;51342;55.250;37.668;2022-08-30T14:35:12;10.95;;;5.45;;
45368;SDS011;51342;55.250;37.668;2022-08-30T14:37:44;15.23;;;5.55;;
45368;SDS011;51342;55.250;37.668;2022-08-30T14:40:16;11.80;;;5.80;;
45368;SDS011;51342;55.250;37.668;2022-08-30T14:42:47;10.55;;;5.25;;
45368;SDS011;51342;55.250;37.668;2022-08-30T14:45:19;10.02;;;4.90;;
45368;SDS011;51342;55.250;37.668;2022-08-30T14:47:50;13.77;;;6.10;;
45368;SDS011;51342;55.250;37.668;2022-08-30T14:50:22;12.43;;;4.88;;
45368;SDS011;51342;55.250;37.668;2022-08-30T14:52:53;14.05;;;5.80;;
45368;SDS011;51342;55.250;37.668;2022-08-30T14:55:25;10.20;;;6.05;;
45368;SDS011;51342;55.250;37.668;2022-08-30T14:57:58;16.40;;;5.50;;
45368;SDS011;51342;55.250;37.668;2022-08-30T15:00:30;22.05;;;6.07;;
45368;SDS011;51342;55.250;37.668;2022-08-30T15:03:01;19.20;;;6.05;;
45368;SDS011;51342;55.250;37.668;2022-08-30T15:05:33;12.30;;;5.53;;
45368;SDS011;51342;55.250;37.668;2022-08-30T15:08:04;15.55;;;5.45;;
45368;SDS011;51342;55.250;37.668;2022-08-30T15:10:35;14.10;;;5.90;;
45368;SDS011;51342;55.250;37.668;2022-08-30T15:13:10;12.75;;;6.20;;
45368;SDS011;51342;55.250;37.668;2022-08-30T15:15:41;15.02;;;6.15;;
45368;SDS011;51342;55.250;37.668;2022-08-30T15:18:13;15.10;;;5.53;;
45368;SDS011;51342;55.250;37.668;2022-08-30T15:20:48;14.13;;;5.78;;
45368;SDS011;51342;55.250;37.668;2022-08-30T15:23:20;16.13;;;6.10;;
45368;SDS011;51342;55.250;37.668;2022-08-30T15:25:51;15.82;;;5.97;;
45368;SDS011;51342;55.250;37.668;2022-08-30T15:28:24;12.45;;;5.78;;
45368;SDS011;51342;55.250;37.668;2022-08-30T15:30:55;12.20;;;6.07;;
45368;SDS011;51342;55.250;37.668;2022-08-30T15:33:27;12.18;;;6.07;;
45368;SDS011;51342;55.250;37.668;2022-08-30T15:35:59;15.00;;;6.28;;
45368;SDS011;51342;55.250;37.668;2022-08-30T15:38:31;13.45;;;6.13;;
45368;SDS011;51342;55.250;37.668;2022-08-30T15:41:05;17.73;;;6.38;;
45368;SDS011;51342;55.250;37.668;2022-08-30T15:43:39;17.42;;;8.57;;
45368;SDS011;51342;55.250;37.668;2022-08-30T15:46:16;15.77;;;7.13;;
45368;SDS011;51342;55.250;37.668;2022-08-30T15:48:53;15.88;;;6.85;;
45368;SDS011;51342;55.250;37.668;2022-08-30T15:51:25;15.18;;;7.10;;
45368;SDS011;51342;55.250;37.668;2022-08-30T15:53:57;13.55;;;6.30;;
45368;SDS011;51342;55.250;37.668;2022-08-30T15:56:29;14.65;;;6.47;;
45368;SDS011;51342;55.250;37.668;2022-08-30T15:59:02;12.63;;;6.85;;
45368;SDS011;51342;55.250;37.668;2022-08-30T16:01:33;18.85;;;6.90;;
45368;SDS011;51342;55.250;37.668;2022-08-30T16:04:05;12.40;;;7.18;;
45368;SDS011;51342;55.250;37.668;2022-08-30T16:06:37;10.13;;;6.75;;
45368;SDS011;51342;55.250;37.668;2022-08-30T16:09:09;21.45;;;9.65;;
45368;SDS011;51342;55.250;37.668;2022-08-30T16:11:41;28.95;;;17.25;;
45368;SDS011;51342;55.250;37.668;2022-08-30T16:14:13;44.38;;;31.42;;
45368;SDS011;51342;55.250;37.668;2022-08-30T16:16:44;29.73;;;19.40;;
45368;SDS011;51342;55.250;37.668;2022-08-30T16:19:16;36.72;;;21.92;;
45368;SDS011;51342;55.250;37.668;2022-08-30T16:21:47;36.53;;;23.80;;
45368;SDS011;51342;55.250;37.668;2022-08-30T16:24:19;36.92;;;21.90;;
45368;SDS011;51342;55.250;37.668;2022-08-30T16:26:50;34.08;;;23.60;;
45368;SDS011;51342;55.250;37.668;2022-08-30T16:29:22;35.47;;;22.23;;
45368;SDS011;51342;55.250;37.668;2022-08-30T16:31:54;30.27;;;21.17;;
45368;SDS011;51342;55.250;37.668;2022-08-30T16:34:25;28.33;;;18.02;;
45368;SDS011;51342;55.250;37.668;2022-08-30T16:36:57;29.65;;;17.60;;
45368;SDS011;51342;55.250;37.668;2022-08-30T16:39:28;26.25;;;18.23;;
45368;SDS011;51342;55.250;37.668;2022-08-30T16:41:59;27.70;;;16.50;;
45368;SDS011;51342;55.250;37.668;2022-08-30T16:44:36;22.30;;;15.65;;
45368;SDS011;51342;55.250;37.668;2022-08-30T16:47:07;23.00;;;14.88;;
45368;SDS011;51342;55.250;37.668;2022-08-30T16:49:39;22.60;;;14.07;;
45368;SDS011;51342;55.250;37.668;2022-08-30T16:52:10;22.02;;;14.27;;